createdAt,value
2022-12-17T00:50:08.058Z,27.17
2022-12-17T00:52:53.182Z,24.80
2022-12-17T00:55:41.901Z,27.55
2022-12-17T00:58:27.317Z,25.08
2022-12-17T01:01:20.743Z,30.63
2022-12-17T01:04:12.717Z,28.75
2022-12-17T01:06:58.023Z,36.90
2022-12-17T01:09:49.062Z,33.83
2022-12-17T01:12:34.582Z,33.92
2022-12-17T01:15:23.086Z,32.30
2022-12-17T01:18:10.758Z,30.20
2022-12-17T01:20:56.427Z,33.80
2022-12-17T01:23:55.518Z,39.55
2022-12-17T01:26:41.734Z,35.22
2022-12-17T01:29:27.170Z,36.08
2022-12-17T01:32:12.601Z,34.28
2022-12-17T01:34:57.612Z,33.20
2022-12-17T01:37:42.798Z,34.25
2022-12-17T01:40:31.660Z,34.80
2022-12-17T01:43:20.210Z,34.30
2022-12-17T01:46:08.542Z,36.15
2022-12-17T01:49:06.490Z,45.33
2022-12-17T01:51:54.870Z,50.08
2022-12-17T01:54:44.163Z,51.75
2022-12-17T01:57:29.971Z,48.72
2022-12-17T02:00:25.253Z,45.70
2022-12-17T02:03:10.996Z,42.78
2022-12-17T02:06:48.457Z,37.13
2022-12-17T02:10:18.863Z,41.33
2022-12-17T02:13:27.628Z,45.53
2022-12-17T02:16:30.785Z,45.90
2022-12-17T02:19:49.130Z,50.15
2022-12-17T02:23:04.815Z,53.60
2022-12-17T02:26:27.612Z,47.30
2022-12-17T02:29:19.904Z,55.63
2022-12-17T02:32:11.071Z,48.85
2022-12-17T02:35:08.691Z,54.58
2022-12-17T02:37:53.923Z,52.97
2022-12-17T02:40:47.024Z,47.78
2022-12-17T02:43:35.012Z,51.65
2022-12-17T02:46:21.208Z,50.25
2022-12-17T02:49:12.251Z,46.10
2022-12-17T02:52:20.269Z,41.60
2022-12-17T02:55:08.340Z,42.35
2022-12-17T02:57:59.491Z,40.97
2022-12-17T03:00:52.229Z,38.70
2022-12-17T03:03:43.845Z,42.63
2022-12-17T03:06:31.219Z,47.33
2022-12-17T03:09:16.568Z,44.97
2022-12-17T03:12:05.792Z,46.08
2022-12-17T03:14:50.808Z,54.22
2022-12-17T03:17:36.084Z,57.33
2022-12-17T03:20:22.462Z,60.22
2022-12-17T03:23:07.818Z,56.65
2022-12-17T03:25:53.127Z,53.95
2022-12-17T03:28:38.455Z,54.45
2022-12-17T03:31:23.972Z,55.60
2022-12-17T03:34:15.458Z,55.20
2022-12-17T03:37:00.558Z,57.70
2022-12-17T03:39:48.872Z,52.75
2022-12-17T03:42:36.831Z,50.15
2022-12-17T03:45:25.632Z,49.10
2022-12-17T03:48:11.133Z,54.70
2022-12-17T03:50:56.550Z,55.40
2022-12-17T03:53:42.086Z,53.78
2022-12-17T03:56:27.400Z,53.78
2022-12-17T03:59:12.715Z,53.50
2022-12-17T04:01:58.214Z,50.20
2022-12-17T04:04:49.616Z,54.85
2022-12-17T04:07:34.931Z,52.97
2022-12-17T04:10:20.415Z,57.70
2022-12-17T04:13:19.573Z,50.90
2022-12-17T04:16:08.148Z,49.33
2022-12-17T04:18:53.312Z,51.00
2022-12-17T04:21:38.684Z,49.30
2022-12-17T04:24:24.641Z,48.78
2022-12-17T04:27:10.115Z,51.55
2022-12-17T04:29:56.897Z,49.63
2022-12-17T04:32:48.390Z,52.78
2022-12-17T04:35:33.803Z,53.92
2022-12-17T04:38:19.102Z,48.67
2022-12-17T04:41:10.705Z,50.03
2022-12-17T04:44:01.262Z,47.13
2022-12-17T04:46:48.409Z,53.45
2022-12-17T04:49:36.866Z,50.22
2022-12-17T04:52:22.914Z,56.90
2022-12-17T04:55:08.217Z,54.63
2022-12-17T04:57:57.218Z,51.53
2022-12-17T05:00:42.661Z,54.72
2022-12-17T05:03:35.117Z,55.33
2022-12-17T05:06:22.247Z,58.08
2022-12-17T05:09:07.574Z,71.35
2022-12-17T05:11:52.995Z,58.50
2022-12-17T05:14:38.380Z,69.65
2022-12-17T05:17:27.202Z,75.28
2022-12-17T07:48:51.844Z,65.32
2022-12-17T07:51:53.823Z,66.63
2022-12-17T11:04:57.603Z,60.15
2022-12-17T11:08:00.102Z,64.53
2022-12-17T11:11:04.036Z,63.15
2022-12-17T11:14:13.993Z,65.22
2022-12-17T11:17:13.195Z,57.42
2022-12-17T11:20:38.458Z,63.78
2022-12-17T15:56:29.500Z,42.60
2022-12-17T17:36:42.735Z,37.25
2022-12-17T18:17:09.380Z,34.50
2022-12-17T21:01:16.220Z,32.78
2022-12-17T21:03:43.447Z,33.90
2022-12-17T21:06:20.237Z,31.23
2022-12-17T21:08:53.834Z,33.63
2022-12-17T21:11:27.270Z,32.95
2022-12-17T21:13:55.804Z,32.72
2022-12-17T21:16:30.191Z,37.15
2022-12-17T21:19:01.673Z,33.50
2022-12-17T21:21:34.214Z,36.22
2022-12-17T21:24:08.310Z,30.65
2022-12-17T21:29:08.916Z,41.92
2022-12-17T21:31:53.327Z,36.17
2022-12-17T21:36:51.664Z,33.95
2022-12-17T21:39:20.067Z,32.85
2022-12-17T21:42:11.431Z,36.58
2022-12-17T21:44:38.068Z,35.35
2022-12-17T21:47:10.290Z,33.97
2022-12-17T21:49:37.210Z,32.13
2022-12-17T21:52:07.589Z,35.58
2022-12-17T21:54:37.811Z,34.42
2022-12-17T21:57:07.923Z,34.88
2022-12-17T21:59:34.700Z,35.95
2022-12-17T22:02:03.998Z,28.15
2022-12-17T22:04:31.290Z,32.65
2022-12-17T22:07:08.135Z,36.60
2022-12-17T22:09:50.124Z,32.83
2022-12-17T22:12:43.818Z,33.05
2022-12-17T22:15:13.960Z,35.47
2022-12-17T22:17:42.508Z,34.05
2022-12-17T22:20:11.323Z,27.08
2022-12-17T22:22:38.192Z,34.83
2022-12-17T22:25:09.192Z,34.33
2022-12-17T22:27:38.842Z,30.77
2022-12-17T22:30:34.075Z,41.33
2022-12-17T22:33:02.457Z,29.48
2022-12-17T22:36:40.485Z,36.00
2022-12-17T22:43:42.578Z,32.08
2022-12-17T22:44:35.842Z,32.13
2022-12-17T22:44:49.042Z,27.98
2022-12-17T22:47:16.778Z,31.38
2022-12-17T22:49:44.281Z,31.92
2022-12-17T22:52:14.536Z,36.55
2022-12-17T22:54:48.609Z,35.10
2022-12-17T22:57:36.751Z,33.00
2022-12-17T23:00:22.731Z,36.72
2022-12-17T23:02:56.876Z,33.13
2022-12-17T23:07:53.424Z,26.83
2022-12-17T23:10:22.047Z,30.48
2022-12-17T23:12:54.130Z,34.63
2022-12-17T23:15:38.043Z,32.78
2022-12-17T23:18:10.791Z,30.17
2022-12-17T23:20:37.734Z,27.60
2022-12-17T23:23:10.304Z,31.70
2022-12-17T23:25:36.938Z,29.73
2022-12-17T23:28:03.999Z,29.75
2022-12-17T23:30:33.857Z,29.35
2022-12-17T23:33:00.861Z,25.40
2022-12-17T23:35:29.744Z,28.77
2022-12-17T23:37:56.943Z,28.42
2022-12-17T23:40:23.766Z,27.95
2022-12-17T23:42:50.788Z,27.98
2022-12-17T23:45:17.651Z,22.30
2022-12-17T23:47:48.164Z,30.50
2022-12-17T23:50:14.980Z,34.28
2022-12-17T23:52:46.053Z,28.63
2022-12-17T23:55:12.875Z,29.58
2022-12-17T23:57:39.935Z,26.60
